Time;durP1;ratioP1;P1;durP2;ratioP2;P2;SDS_P1;SDS_P2;PMS_P1;PMS_P2;Temp;Humidity;BMP_temperature;BMP_pressure;BME280_temperature;BME280_humidity;BME280_pressure;Samples;Min_cycle;Max_cycle;Signal;HPM_P1;HPM_P2
2021/07/24 00:00:07;;;;;;;1.33;1.13;;;13.70;99.90;;;;;;4999063;28;20076;-67
2021/07/24 00:02:35;;;;;;;1.80;0.63;;;13.60;99.90;;;;;;4993182;28;20419;-65
2021/07/24 00:05:04;;;;;;;1.88;1.05;;;13.50;99.90;;;;;;4998323;28;20368;-67
2021/07/24 00:07:31;;;;;;;2.05;1.10;;;13.60;99.90;;;;;;4994603;28;20074;-66
2021/07/24 00:09:58;;;;;;;1.55;1.10;;;13.50;99.90;;;;;;4998400;28;20485;-67
2021/07/24 00:12:25;;;;;;;2.05;1.80;;;13.50;99.90;;;;;;4998040;28;20136;-67
2021/07/24 00:14:52;;;;;;;0.93;0.90;;;13.50;99.90;;;;;;4999934;28;20050;-66
2021/07/24 00:17:19;;;;;;;2.10;0.90;;;13.50;99.90;;;;;;5001735;28;20061;-68
2021/07/24 00:19:46;;;;;;;2.65;1.42;;;13.40;99.90;;;;;;5008036;28;20044;-67
2021/07/24 00:22:13;;;;;;;1.38;1.15;;;13.40;99.90;;;;;;5002401;28;20046;-66
2021/07/24 00:24:40;;;;;;;1.00;0.90;;;13.40;99.90;;;;;;5007024;28;20360;-70
2021/07/24 00:27:11;;;;;;;1.23;1.13;;;13.40;99.90;;;;;;5002225;28;20658;-68
2021/07/24 00:29:37;;;;;;;1.60;1.50;;;13.40;99.90;;;;;;5000335;28;20054;-67
2021/07/24 00:32:05;;;;;;;1.23;1.13;;;13.30;99.90;;;;;;5004201;28;20046;-66
2021/07/24 00:34:34;;;;;;;1.33;1.02;;;13.30;99.90;;;;;;4992644;28;20484;-65
2021/07/24 00:37:19;;;;;;;1.38;1.21;;;13.30;99.90;;;;;;4387467;28;10000560;-68
2021/07/24 00:39:48;;;;;;;1.77;0.90;;;13.30;99.90;;;;;;2747705;28;10002215;-69
2021/07/24 00:42:20;;;;;;;1.50;1.40;;;13.20;99.90;;;;;;4981888;28;20412;-66
2021/07/24 00:44:49;;;;;;;2.30;1.35;;;13.20;99.90;;;;;;4979348;28;20114;-68
2021/07/24 00:47:19;;;;;;;1.45;0.80;;;13.20;99.90;;;;;;4984225;28;20172;-66
2021/07/24 00:49:51;;;;;;;2.42;0.85;;;13.20;99.90;;;;;;4980325;28;20395;-65
2021/07/24 00:52:18;;;;;;;2.38;1.00;;;13.20;99.90;;;;;;4988572;28;20128;-66
2021/07/24 00:54:45;;;;;;;3.70;1.40;;;13.10;99.90;;;;;;4984994;28;20138;-66
2021/07/24 00:57:13;;;;;;;1.50;1.10;;;13.10;99.90;;;;;;4986933;28;20058;-66
2021/07/24 00:59:40;;;;;;;1.48;1.17;;;13.10;99.90;;;;;;4999740;28;20070;-68
2021/07/24 01:02:07;;;;;;;1.92;0.80;;;13.10;99.90;;;;;;4986166;28;20045;-67
2021/07/24 01:04:34;;;;;;;1.45;1.35;;;13.00;99.90;;;;;;4979287;28;20054;-67
2021/07/24 01:07:06;;;;;;;1.30;1.20;;;13.00;99.90;;;;;;4979817;28;20053;-68
2021/07/24 01:09:33;;;;;;;1.42;1.30;;;13.00;99.90;;;;;;4998743;28;20074;-65
2021/07/24 01:12:02;;;;;;;1.75;1.30;;;12.90;99.90;;;;;;4962963;28;20144;-68
2021/07/24 01:14:32;;;;;;;1.35;1.25;;;12.90;99.90;;;;;;4978186;28;20054;-65
2021/07/24 01:17:00;;;;;;;1.92;1.30;;;12.90;99.90;;;;;;4997905;28;20459;-66
2021/07/24 01:19:34;;;;;;;2.42;1.13;;;12.90;99.90;;;;;;4977108;28;20043;-69
2021/07/24 01:22:03;;;;;;;1.67;1.10;;;12.80;99.90;;;;;;4983460;28;20069;-67
2021/07/24 01:24:31;;;;;;;1.35;1.17;;;12.80;99.90;;;;;;4986353;28;20496;-67
2021/07/24 01:27:08;;;;;;;1.80;1.55;;;12.80;99.90;;;;;;4980391;28;20423;-65
2021/07/24 01:29:39;;;;;;;4.40;1.40;;;12.80;99.90;;;;;;4977415;28;20038;-69
2021/07/24 01:32:10;;;;;;;2.30;1.65;;;12.70;99.90;;;;;;4980444;28;20052;-68
2021/07/24 01:34:38;;;;;;;2.85;1.60;;;12.70;99.90;;;;;;4980895;28;20058;-68
2021/07/24 01:37:07;;;;;;;3.80;1.30;;;12.80;99.90;;;;;;4983244;28;20393;-69
2021/07/24 01:39:35;;;;;;;3.45;1.50;;;12.70;99.90;;;;;;4994200;28;20140;-67
2021/07/24 01:42:03;;;;;;;3.58;1.63;;;12.70;99.90;;;;;;4982880;28;20050;-67
2021/07/24 01:44:35;;;;;;;4.20;1.48;;;12.70;99.90;;;;;;4981070;28;20043;-65
2021/07/24 01:47:03;;;;;;;4.30;1.67;;;12.70;99.90;;;;;;4985113;28;20109;-66
2021/07/24 01:52:48;;;;;;;3.08;1.45;;;12.60;99.90;;;;;;4983319;28;20069;-66
2021/07/24 01:55:22;;;;;;;1.40;1.30;;;12.60;99.90;;;;;;4997903;28;20053;-69
2021/07/24 01:58:06;;;;;;;2.42;1.13;;;12.60;99.90;;;;;;4997394;28;20046;-65
2021/07/24 02:00:44;;;;;;;1.55;1.00;;;12.60;99.90;;;;;;4980353;28;20108;-70
2021/07/24 02:03:54;;;;;;;1.17;1.08;;;12.60;99.90;;;;;;4982103;28;20057;-66
2021/07/24 02:06:41;;;;;;;1.15;1.00;;;12.60;99.90;;;;;;4973842;28;20149;-66
2021/07/24 02:09:08;;;;;;;2.25;1.30;;;12.50;99.90;;;;;;4982329;28;20041;-65
2021/07/24 02:11:37;;;;;;;1.92;1.13;;;12.50;99.90;;;;;;4978594;28;20061;-65
2021/07/24 02:14:06;;;;;;;2.13;1.92;;;12.60;99.90;;;;;;4982121;28;20488;-67
2021/07/24 02:16:35;;;;;;;2.35;1.67;;;12.50;99.90;;;;;;4980927;28;20136;-66
2021/07/24 02:19:03;;;;;;;3.20;1.42;;;12.50;99.90;;;;;;4983123;28;20046;-65
2021/07/24 02:21:42;;;;;;;1.38;1.17;;;12.60;99.90;;;;;;4994856;28;20076;-67
2021/07/24 02:24:09;;;;;;;3.70;1.77;;;12.50;99.90;;;;;;4997498;28;20062;-65
2021/07/24 02:26:42;;;;;;;1.33;1.10;;;12.50;99.90;;;;;;4983079;28;20578;-66
2021/07/24 02:29:10;;;;;;;5.57;1.70;;;12.50;99.90;;;;;;4982115;28;20640;-66
2021/07/24 02:31:37;;;;;;;2.85;1.50;;;12.60;99.90;;;;;;4980734;28;20137;-66
2021/07/24 02:34:08;;;;;;;1.75;1.27;;;12.50;99.90;;;;;;4980220;28;20136;-67
2021/07/24 02:36:36;;;;;;;2.42;1.30;;;12.50;99.90;;;;;;4973737;28;20490;-65
2021/07/24 02:39:03;;;;;;;2.15;1.45;;;12.50;99.90;;;;;;4983201;28;20042;-69
2021/07/24 02:41:31;;;;;;;3.90;2.10;;;12.50;99.90;;;;;;4977242;28;20123;-70
2021/07/24 02:43:58;;;;;;;1.50;0.88;;;12.50;99.90;;;;;;4982722;28;20574;-65
2021/07/24 02:46:25;;;;;;;1.55;1.30;;;12.50;99.90;;;;;;4984062;28;20782;-66
2021/07/24 02:48:53;;;;;;;1.52;1.38;;;12.50;99.90;;;;;;4983646;28;20133;-65
2021/07/24 02:51:29;;;;;;;1.38;1.27;;;12.50;99.90;;;;;;4983582;28;20073;-66
2021/07/24 02:53:57;;;;;;;1.77;1.52;;;12.40;99.90;;;;;;4973758;28;20053;-66
2021/07/24 02:56:26;;;;;;;1.67;1.50;;;12.40;99.90;;;;;;4978231;28;20607;-66
2021/07/24 02:58:53;;;;;;;1.15;1.05;;;12.40;99.90;;;;;;4983184;28;20066;-67
2021/07/24 03:01:20;;;;;;;1.55;1.00;;;12.40;99.90;;;;;;4976257;28;20046;-66
2021/07/24 03:03:48;;;;;;;1.73;1.60;;;12.40;99.90;;;;;;4981822;28;20051;-66
2021/07/24 03:06:14;;;;;;;2.67;1.20;;;12.40;99.90;;;;;;4979546;28;20050;-67
2021/07/24 03:08:41;;;;;;;1.20;1.10;;;12.40;99.90;;;;;;4981186;28;20448;-69
2021/07/24 03:11:08;;;;;;;1.55;1.45;;;12.40;99.90;;;;;;4980825;28;20069;-65
2021/07/24 03:13:35;;;;;;;1.42;1.13;;;12.40;99.90;;;;;;4980270;28;20492;-68
2021/07/24 03:16:02;;;;;;;2.97;1.70;;;12.30;99.90;;;;;;4975541;28;20473;-66
2021/07/24 03:18:29;;;;;;;1.65;1.13;;;12.30;99.90;;;;;;4980940;28;20053;-68
2021/07/24 03:20:56;;;;;;;2.17;1.98;;;12.30;99.90;;;;;;4977041;28;20047;-65
2021/07/24 03:23:23;;;;;;;3.05;1.20;;;12.40;99.90;;;;;;4980660;28;20104;-65
2021/07/24 03:25:50;;;;;;;3.50;1.45;;;12.40;99.90;;;;;;4980564;28;20046;-66
2021/07/24 03:28:17;;;;;;;1.98;1.60;;;12.50;99.90;;;;;;4979751;28;20108;-65
2021/07/24 03:30:44;;;;;;;1.67;1.58;;;12.50;99.90;;;;;;4984142;28;20573;-66
2021/07/24 03:33:11;;;;;;;3.38;1.30;;;12.50;99.90;;;;;;4977614;28;20497;-65
2021/07/24 03:35:37;;;;;;;3.65;1.48;;;12.60;99.90;;;;;;4996804;28;20395;-67
2021/07/24 03:38:05;;;;;;;2.33;1.52;;;12.60;99.90;;;;;;5000614;28;20046;-65
2021/07/24 03:40:32;;;;;;;1.42;1.33;;;12.60;99.90;;;;;;5003393;28;20081;-65
2021/07/24 03:42:59;;;;;;;1.95;1.50;;;12.60;99.90;;;;;;5000282;28;20475;-66
2021/07/24 03:45:26;;;;;;;2.30;1.90;;;12.60;99.90;;;;;;4999864;28;20515;-67
2021/07/24 03:47:53;;;;;;;1.50;1.15;;;12.70;99.90;;;;;;4998401;28;20046;-66
2021/07/24 03:50:20;;;;;;;2.83;1.67;;;12.70;99.90;;;;;;5002009;28;20368;-67
2021/07/24 03:52:47;;;;;;;1.90;1.30;;;12.80;99.90;;;;;;5001812;28;20088;-67
2021/07/24 03:55:14;;;;;;;1.92;1.55;;;12.80;99.90;;;;;;4996154;28;20523;-65
2021/07/24 03:57:41;;;;;;;1.55;1.45;;;12.80;99.90;;;;;;4999747;28;20046;-67
2021/07/24 04:00:08;;;;;;;2.45;1.55;;;12.90;99.90;;;;;;4998392;28;20456;-68
2021/07/24 04:02:43;;;;;;;4.68;1.48;;;12.90;99.90;;;;;;4999158;28;20119;-65
2021/07/24 04:05:11;;;;;;;3.88;1.88;;;13.00;99.90;;;;;;5002333;28;20049;-66
2021/07/24 04:07:39;;;;;;;4.22;1.35;;;13.00;99.90;;;;;;4999897;28;20077;-68
2021/07/24 04:10:07;;;;;;;3.90;1.83;;;13.10;99.90;;;;;;4998921;28;20425;-65
2021/07/24 04:12:35;;;;;;;6.40;1.92;;;13.10;99.90;;;;;;5002463;28;20655;-66
2021/07/24 04:15:04;;;;;;;2.15;2.03;;;13.20;99.90;;;;;;5000189;28;20073;-68
2021/07/24 04:17:32;;;;;;;2.78;1.50;;;13.30;99.90;;;;;;4996105;28;20074;-65
2021/07/24 04:19:59;;;;;;;1.73;1.45;;;13.30;99.90;;;;;;5000861;28;20050;-65
2021/07/24 04:22:26;;;;;;;1.33;1.23;;;13.40;99.90;;;;;;5000619;28;20046;-69
2021/07/24 04:24:53;;;;;;;3.75;1.63;;;13.40;99.90;;;;;;4998647;28;20522;-69
2021/07/24 04:27:20;;;;;;;1.48;1.27;;;13.60;99.90;;;;;;4994708;28;20053;-65
2021/07/24 04:29:48;;;;;;;1.40;1.27;;;13.60;99.90;;;;;;4998691;28;20045;-69
2021/07/24 04:32:15;;;;;;;1.60;1.50;;;13.70;99.90;;;;;;5004318;28;20050;-66
2021/07/24 04:34:42;;;;;;;3.13;2.00;;;13.80;99.90;;;;;;4999987;28;20045;-66
2021/07/24 04:37:09;;;;;;;1.58;1.48;;;13.90;99.90;;;;;;4999653;28;20080;-69
2021/07/24 04:39:36;;;;;;;3.38;1.40;;;14.00;99.90;;;;;;4998525;28;20037;-66
2021/07/24 04:42:04;;;;;;;4.60;1.70;;;14.00;99.90;;;;;;5001030;28;20603;-68
2021/07/24 04:44:30;;;;;;;2.25;1.70;;;14.10;99.90;;;;;;5001647;28;20041;-69
2021/07/24 04:46:57;;;;;;;3.22;2.22;;;14.30;99.90;;;;;;5000837;28;20088;-68
2021/07/24 04:49:24;;;;;;;1.90;1.25;;;14.40;99.90;;;;;;4991819;28;20369;-67
2021/07/24 04:51:51;;;;;;;2.42;2.22;;;14.40;99.90;;;;;;5000430;28;20108;-68
2021/07/24 04:54:18;;;;;;;1.63;1.52;;;14.50;99.90;;;;;;4995826;28;20108;-66
2021/07/24 04:56:45;;;;;;;2.30;1.73;;;14.60;99.90;;;;;;4998357;28;20132;-68
2021/07/24 04:59:12;;;;;;;2.08;1.88;;;14.70;99.90;;;;;;4999192;28;20513;-65
2021/07/24 05:01:40;;;;;;;5.88;2.78;;;14.80;99.90;;;;;;4996938;28;20382;-68
2021/07/24 05:04:07;;;;;;;2.47;1.27;;;14.80;99.90;;;;;;5006269;28;20450;-69
2021/07/24 05:06:35;;;;;;;3.35;1.77;;;14.90;99.90;;;;;;5000987;28;20778;-69
2021/07/24 05:09:05;;;;;;;3.08;1.77;;;15.10;99.90;;;;;;5006011;28;20053;-64
2021/07/24 05:11:34;;;;;;;4.22;2.58;;;15.10;99.90;;;;;;5002992;28;20436;-68
2021/07/24 05:14:01;;;;;;;2.05;1.80;;;15.30;99.90;;;;;;5003643;28;20748;-66
2021/07/24 05:16:29;;;;;;;3.15;1.98;;;15.30;99.90;;;;;;5005350;28;20041;-65
2021/07/24 05:18:58;;;;;;;2.75;1.50;;;15.40;99.90;;;;;;5003164;28;20053;-67
2021/07/24 05:21:25;;;;;;;4.40;1.70;;;15.50;99.90;;;;;;5001311;28;20119;-65
2021/07/24 05:23:52;;;;;;;2.33;2.13;;;15.60;99.90;;;;;;4998311;28;20100;-66
2021/07/24 05:26:19;;;;;;;2.17;1.88;;;15.60;99.90;;;;;;5000106;28;20053;-65
2021/07/24 05:28:48;;;;;;;4.43;2.72;;;15.80;99.90;;;;;;5002232;28;20463;-68
2021/07/24 05:31:20;;;;;;;4.22;2.42;;;15.90;99.90;;;;;;4999246;28;20042;-66
2021/07/24 05:33:47;;;;;;;3.33;2.05;;;16.00;99.90;;;;;;5000962;28;20042;-64
2021/07/24 05:36:14;;;;;;;2.08;1.88;;;16.10;99.90;;;;;;5001821;28;20042;-69
2021/07/24 05:38:42;;;;;;;1.73;1.63;;;16.20;99.90;;;;;;5000144;28;20116;-67
2021/07/24 05:41:09;;;;;;;4.97;2.47;;;16.20;99.90;;;;;;5003306;28;20081;-66
2021/07/24 05:43:35;;;;;;;2.65;2.45;;;16.50;99.90;;;;;;5002796;28;20042;-66
2021/07/24 05:46:02;;;;;;;2.90;1.55;;;16.60;99.90;;;;;;5001716;28;20037;-66
2021/07/24 05:48:29;;;;;;;3.30;2.03;;;16.80;99.90;;;;;;5003137;28;20057;-65
2021/07/24 05:50:56;;;;;;;4.70;2.22;;;16.80;99.90;;;;;;5002467;28;20499;-66
2021/07/24 05:53:23;;;;;;;2.22;1.85;;;16.90;99.90;;;;;;5001989;28;20054;-67
2021/07/24 05:55:50;;;;;;;5.43;2.15;;;16.90;99.90;;;;;;5004430;28;20045;-65
2021/07/24 05:58:17;;;;;;;2.58;1.88;;;16.90;99.90;;;;;;5001505;28;20092;-65
2021/07/24 06:00:44;;;;;;;2.97;1.60;;;16.90;99.90;;;;;;5005261;28;20470;-67
2021/07/24 06:03:11;;;;;;;1.42;1.08;;;16.90;99.90;;;;;;5001271;28;20456;-66
2021/07/24 06:05:38;;;;;;;2.55;2.35;;;17.00;99.90;;;;;;4996686;28;20514;-65
2021/07/24 06:08:05;;;;;;;1.40;1.30;;;17.00;99.90;;;;;;5001188;28;20487;-66
2021/07/24 06:10:32;;;;;;;2.30;1.90;;;17.10;99.90;;;;;;4999055;28;20030;-66
2021/07/24 06:12:59;;;;;;;2.08;1.88;;;17.20;99.90;;;;;;5002120;28;20130;-66
2021/07/24 06:15:26;;;;;;;1.67;1.38;;;17.40;99.90;;;;;;4998423;28;20616;-66
2021/07/24 06:17:53;;;;;;;2.40;1.60;;;17.40;99.90;;;;;;5003143;28;20088;-65
2021/07/24 06:20:19;;;;;;;4.47;1.58;;;17.40;99.90;;;;;;5000968;28;20049;-67
2021/07/24 06:22:46;;;;;;;2.50;1.60;;;17.50;99.90;;;;;;5000039;28;20554;-66
2021/07/24 06:25:13;;;;;;;2.38;1.73;;;17.50;99.90;;;;;;5001818;28;20046;-68
2021/07/24 06:27:43;;;;;;;2.15;1.95;;;17.50;99.90;;;;;;5002151;28;20050;-67
2021/07/24 06:30:11;;;;;;;3.53;1.77;;;17.60;99.90;;;;;;4999075;28;20073;-68
2021/07/24 06:32:38;;;;;;;1.65;1.38;;;17.60;99.90;;;;;;4999870;28;20423;-66
2021/07/24 06:35:05;;;;;;;1.85;1.55;;;17.60;99.90;;;;;;4998717;28;20042;-65
2021/07/24 06:37:32;;;;;;;1.63;1.52;;;17.60;99.90;;;;;;4997685;28;20581;-67
2021/07/24 06:39:59;;;;;;;3.30;1.77;;;17.60;99.90;;;;;;5001069;28;20034;-65
2021/07/24 06:42:26;;;;;;;1.77;1.63;;;17.70;99.90;;;;;;5003498;28;20096;-68
2021/07/24 06:44:53;;;;;;;1.85;1.52;;;17.80;99.90;;;;;;5001425;28;20452;-66
2021/07/24 06:47:21;;;;;;;3.30;2.00;;;17.80;99.90;;;;;;4983250;28;20125;-66
2021/07/24 06:49:49;;;;;;;2.38;1.85;;;17.80;99.90;;;;;;5000891;28;20034;-65
2021/07/24 06:52:16;;;;;;;2.38;1.73;;;17.90;99.90;;;;;;4997529;28;20112;-67
2021/07/24 06:54:43;;;;;;;3.60;1.92;;;17.90;99.90;;;;;;5001768;28;20042;-66
2021/07/24 06:57:10;;;;;;;3.97;1.58;;;17.90;99.90;;;;;;5002458;28;20484;-65
2021/07/24 06:59:37;;;;;;;3.78;2.10;;;17.90;99.90;;;;;;5002480;28;20046;-66
2021/07/24 07:02:09;;;;;;;2.08;1.50;;;18.00;99.90;;;;;;5001637;28;20049;-67
2021/07/24 07:04:37;;;;;;;2.42;1.38;;;18.10;99.90;;;;;;5002025;28;20069;-68
2021/07/24 07:07:07;;;;;;;2.10;1.80;;;18.20;99.90;;;;;;5000192;28;20050;-66
2021/07/24 07:09:34;;;;;;;1.98;1.35;;;18.10;99.90;;;;;;5001327;28;20121;-65
2021/07/24 07:12:02;;;;;;;2.85;1.40;;;18.20;99.90;;;;;;4998762;28;20042;-68
2021/07/24 07:14:29;;;;;;;2.22;1.13;;;18.20;99.90;;;;;;4995086;28;20473;-66
2021/07/24 07:16:56;;;;;;;1.83;1.52;;;18.30;99.90;;;;;;4995431;28;20108;-67
2021/07/24 07:19:23;;;;;;;3.92;2.08;;;18.30;99.90;;;;;;4999466;28;20045;-67
2021/07/24 07:21:50;;;;;;;2.97;1.88;;;18.30;99.90;;;;;;4995117;28;20104;-67
2021/07/24 07:24:17;;;;;;;2.65;2.17;;;18.40;99.90;;;;;;4999549;28;20104;-65
2021/07/24 07:26:45;;;;;;;2.45;1.75;;;18.40;99.90;;;;;;4999676;28;20052;-66
2021/07/24 07:29:12;;;;;;;2.50;2.05;;;18.50;99.90;;;;;;5001505;28;20470;-69
2021/07/24 07:31:39;;;;;;;1.48;1.30;;;18.60;99.90;;;;;;5000153;28;20100;-69
2021/07/24 07:34:06;;;;;;;1.52;1.42;;;18.70;99.90;;;;;;4998773;28;20034;-67
2021/07/24 07:36:33;;;;;;;2.42;1.63;;;18.70;99.90;;;;;;4999130;28;20128;-66
2021/07/24 07:39:00;;;;;;;2.50;1.60;;;18.70;99.90;;;;;;5003448;28;20940;-67
2021/07/24 07:41:28;;;;;;;3.95;1.88;;;18.70;99.90;;;;;;4997751;28;20366;-69
2021/07/24 07:43:55;;;;;;;2.03;1.17;;;18.80;99.90;;;;;;4993911;28;20045;-68
2021/07/24 07:46:22;;;;;;;2.28;1.83;;;18.70;99.90;;;;;;4998413;28;20117;-69
2021/07/24 07:48:49;;;;;;;2.67;1.75;;;18.80;99.90;;;;;;4996146;28;20053;-69
2021/07/24 07:51:16;;;;;;;4.82;2.25;;;18.80;99.90;;;;;;4999766;28;20038;-71
2021/07/24 07:53:43;;;;;;;3.90;2.33;;;18.90;99.90;;;;;;4996441;28;20145;-68
2021/07/24 07:56:10;;;;;;;2.25;1.98;;;19.00;99.90;;;;;;5000003;28;20042;-67
2021/07/24 07:58:37;;;;;;;1.50;1.30;;;19.10;99.90;;;;;;5000093;28;20107;-69
2021/07/24 08:01:11;;;;;;;1.80;1.50;;;18.90;99.90;;;;;;5001212;28;20046;-72
2021/07/24 08:03:40;;;;;;;2.15;1.05;;;18.90;99.90;;;;;;4997945;28;20364;-69
2021/07/24 08:06:08;;;;;;;3.05;1.58;;;19.00;99.90;;;;;;5001527;28;20451;-67
2021/07/24 08:08:34;;;;;;;2.00;1.85;;;19.10;99.90;;;;;;5001897;28;20050;-67
2021/07/24 08:11:01;;;;;;;4.75;1.33;;;19.10;99.90;;;;;;4977201;28;20112;-65
2021/07/24 08:13:30;;;;;;;2.45;1.23;;;19.10;99.90;;;;;;4999956;28;20060;-68
2021/07/24 08:15:57;;;;;;;2.78;1.45;;;19.20;99.90;;;;;;5000499;28;20030;-65
2021/07/24 08:18:24;;;;;;;2.90;2.20;;;19.20;99.90;;;;;;5000625;28;20120;-65
2021/07/24 08:20:51;;;;;;;1.52;1.13;;;19.20;99.90;;;;;;4998132;28;20046;-66
2021/07/24 08:23:18;;;;;;;2.47;1.02;;;19.30;99.90;;;;;;5002154;28;20129;-65
2021/07/24 08:25:45;;;;;;;1.55;1.10;;;19.50;99.90;;;;;;4998633;28;20061;-68
2021/07/24 08:28:12;;;;;;;2.88;1.60;;;19.50;99.90;;;;;;4997346;28;20041;-65
2021/07/24 08:30:39;;;;;;;2.47;1.50;;;19.50;99.90;;;;;;5000470;28;20081;-66
2021/07/24 08:33:06;;;;;;;2.28;1.10;;;19.60;99.90;;;;;;4999824;28;20057;-67
2021/07/24 08:35:33;;;;;;;3.20;1.38;;;19.70;99.90;;;;;;4998491;28;20474;-70
2021/07/24 08:38:00;;;;;;;2.22;1.50;;;19.70;99.90;;;;;;5001858;28;20751;-66
2021/07/24 08:40:27;;;;;;;5.18;1.77;;;19.70;99.90;;;;;;5004459;28;20101;-66
2021/07/24 08:43:06;;;;;;;1.43;1.30;;;19.70;99.90;;;;;;4996976;28;20053;-67
2021/07/24 08:45:33;;;;;;;3.85;1.27;;;19.70;99.90;;;;;;5001020;28;20081;-66
2021/07/24 08:48:03;;;;;;;2.00;1.45;;;19.80;99.90;;;;;;4994958;28;20069;-65
2021/07/24 08:50:32;;;;;;;2.22;1.42;;;19.90;99.90;;;;;;5002616;28;20081;-66
2021/07/24 08:53:04;;;;;;;1.98;1.30;;;19.90;99.90;;;;;;5001752;28;20142;-68
2021/07/24 08:55:32;;;;;;;2.22;1.67;;;19.90;99.90;;;;;;5001369;28;20064;-67
2021/07/24 08:58:00;;;;;;;1.50;1.38;;;19.90;99.90;;;;;;5002830;28;20042;-67
2021/07/24 09:00:28;;;;;;;1.50;1.30;;;20.00;99.90;;;;;;4997299;28;20256;-69
2021/07/24 09:03:00;;;;;;;4.25;1.60;;;20.10;99.90;;;;;;5003488;28;20138;-68
2021/07/24 09:05:30;;;;;;;1.35;1.00;;;20.20;99.90;;;;;;5000901;28;20838;-65
2021/07/24 09:07:59;;;;;;;1.58;1.30;;;20.30;99.90;;;;;;4999583;28;20050;-66
2021/07/24 09:10:26;;;;;;;1.50;1.02;;;20.40;99.90;;;;;;4998133;28;20389;-69
2021/07/24 09:12:56;;;;;;;3.20;2.95;;;20.40;99.90;;;;;;5001742;28;20351;-65
2021/07/24 09:15:23;;;;;;;1.23;1.13;;;20.40;99.90;;;;;;4997600;28;20068;-68
2021/07/24 09:17:50;;;;;;;4.95;2.83;;;20.40;99.90;;;;;;5001225;28;20100;-68
2021/07/24 09:20:22;;;;;;;3.03;1.77;;;20.50;99.90;;;;;;4994365;28;20046;-65
2021/07/24 09:22:49;;;;;;;6.80;1.33;;;20.50;99.90;;;;;;4997985;28;20145;-68
2021/07/24 09:25:18;;;;;;;1.45;1.10;;;20.50;99.90;;;;;;4997348;28;20816;-68
2021/07/24 09:27:55;;;;;;;1.75;1.17;;;20.50;99.90;;;;;;4996585;28;20070;-67
2021/07/24 09:30:28;;;;;;;2.58;1.42;;;20.50;99.90;;;;;;4996043;28;20058;-66
2021/07/24 09:33:08;;;;;;;2.78;1.63;;;20.50;99.90;;;;;;4998310;28;20123;-65
2021/07/24 09:35:45;;;;;;;1.60;1.20;;;20.60;99.90;;;;;;4997536;28;20564;-69
2021/07/24 09:38:12;;;;;;;1.83;1.42;;;20.50;99.90;;;;;;4976840;28;20054;-68
2021/07/24 09:40:41;;;;;;;1.50;0.93;;;20.50;99.90;;;;;;4994836;28;20379;-67
2021/07/24 09:43:30;;;;;;;3.87;3.30;;;20.50;99.90;;;;;;4997539;28;20491;-69
2021/07/24 09:46:15;;;;;;;2.90;1.40;;;20.70;99.90;;;;;;4994333;28;20686;-69
2021/07/24 09:48:46;;;;;;;2.33;1.33;;;20.80;99.90;;;;;;4998407;28;20054;-68
2021/07/24 09:51:14;;;;;;;2.90;2.13;;;21.00;99.90;;;;;;4999789;28;20076;-69
2021/07/24 09:53:45;;;;;;;1.08;0.93;;;21.10;99.90;;;;;;4996425;28;20070;-66
2021/07/24 09:56:17;;;;;;;3.15;1.17;;;21.10;99.90;;;;;;4998596;28;20053;-65
2021/07/24 09:58:44;;;;;;;2.13;1.35;;;21.20;99.90;;;;;;4999626;28;20057;-64
2021/07/24 10:01:13;;;;;;;2.80;1.15;;;21.30;99.90;;;;;;4995801;28;20802;-66
2021/07/24 10:03:40;;;;;;;1.50;1.40;;;21.30;99.90;;;;;;4996205;28;20058;-65
2021/07/24 10:06:12;;;;;;;1.70;1.30;;;21.30;99.90;;;;;;4998418;28;20101;-67
2021/07/24 10:08:41;;;;;;;2.22;1.30;;;21.20;99.90;;;;;;5001227;28;20419;-65
2021/07/24 10:11:08;;;;;;;1.48;1.02;;;21.40;99.90;;;;;;4998185;28;20134;-67
2021/07/24 10:13:38;;;;;;;1.65;1.17;;;21.40;99.90;;;;;;4997738;28;20042;-68
2021/07/24 10:16:06;;;;;;;3.05;1.30;;;21.40;99.90;;;;;;4992819;28;20085;-65
2021/07/24 10:18:34;;;;;;;1.05;0.90;;;21.40;99.90;;;;;;5000440;28;20133;-65
2021/07/24 10:21:04;;;;;;;1.83;1.20;;;21.60;99.90;;;;;;5001565;28;20389;-68
2021/07/24 10:23:33;;;;;;;1.48;1.35;;;21.60;99.90;;;;;;4997203;28;20050;-68
2021/07/24 10:26:17;;;;;;;4.50;1.83;;;21.50;99.90;;;;;;4996310;28;20124;-67
2021/07/24 10:29:04;;;;;;;3.35;1.20;;;21.50;99.90;;;;;;4997834;28;20065;-70
2021/07/24 10:31:55;;;;;;;2.25;1.45;;;21.60;99.90;;;;;;4999243;28;20430;-69
2021/07/24 10:34:24;;;;;;;1.92;1.40;;;21.50;99.90;;;;;;4996684;28;20077;-68
2021/07/24 10:36:52;;;;;;;1.73;1.33;;;21.50;99.90;;;;;;4997496;28;20054;-66
2021/07/24 10:39:20;;;;;;;4.10;1.95;;;21.60;99.90;;;;;;4999141;28;20051;-65
2021/07/24 10:42:08;;;;;;;3.63;1.98;;;21.70;99.90;;;;;;4997796;28;20100;-65
2021/07/24 10:44:41;;;;;;;2.40;1.20;;;21.70;99.90;;;;;;4998607;28;20088;-67
2021/07/24 10:47:09;;;;;;;1.50;1.30;;;21.80;99.90;;;;;;4999021;28;21152;-66
2021/07/24 10:49:36;;;;;;;1.52;1.42;;;21.90;99.90;;;;;;4999453;28;20396;-67
2021/07/24 10:52:06;;;;;;;1.55;1.45;;;22.10;99.90;;;;;;4998104;28;20034;-67
2021/07/24 10:54:53;;;;;;;1.67;1.00;;;22.10;99.90;;;;;;4993524;28;20100;-67
2021/07/24 10:57:45;;;;;;;1.67;1.33;;;22.00;99.90;;;;;;4977785;28;20062;-66
2021/07/24 11:00:18;;;;;;;1.65;0.95;;;21.80;99.90;;;;;;4997531;28;20609;-66
2021/07/24 11:02:47;;;;;;;2.58;1.10;;;21.90;99.90;;;;;;4995636;28;20528;-70
2021/07/24 11:05:30;;;;;;;2.78;1.08;;;22.00;99.90;;;;;;4997733;28;20128;-66
2021/07/24 11:07:58;;;;;;;4.60;1.52;;;21.90;99.90;;;;;;4994000;28;20092;-67
2021/07/24 11:10:26;;;;;;;1.77;1.00;;;21.90;99.90;;;;;;5001019;28;20041;-67
2021/07/24 11:12:53;;;;;;;1.83;1.67;;;21.80;99.90;;;;;;5001411;28;20044;-67
2021/07/24 11:15:40;;;;;;;2.20;1.27;;;21.70;99.90;;;;;;4996377;28;20068;-68
2021/07/24 11:18:23;;;;;;;2.70;1.60;;;21.80;99.90;;;;;;4995744;28;20074;-68
2021/07/24 11:20:51;;;;;;;1.65;1.33;;;22.00;99.90;;;;;;4996332;28;20795;-67
2021/07/24 11:23:19;;;;;;;1.33;1.23;;;22.10;99.90;;;;;;4998374;28;20121;-68
2021/07/24 11:25:46;;;;;;;3.22;1.35;;;22.20;99.90;;;;;;4993655;28;20100;-67
2021/07/24 11:28:19;;;;;;;2.35;1.23;;;22.30;99.90;;;;;;5001077;28;20053;-68
2021/07/24 11:30:56;;;;;;;1.42;1.33;;;22.30;99.90;;;;;;4996332;28;20045;-69
2021/07/24 11:33:28;;;;;;;1.00;0.70;;;22.40;99.90;;;;;;4997734;28;20057;-71
2021/07/24 11:36:01;;;;;;;2.60;2.00;;;22.40;99.90;;;;;;4998627;28;20049;-65
2021/07/24 11:38:28;;;;;;;2.22;1.17;;;22.20;99.50;;;;;;5001879;28;20049;-67
2021/07/24 11:41:00;;;;;;;1.60;1.30;;;22.20;99.90;;;;;;5002311;28;20050;-66
2021/07/24 11:43:28;;;;;;;1.85;1.45;;;22.50;99.80;;;;;;5002116;28;20137;-66
2021/07/24 11:46:00;;;;;;;1.63;0.90;;;22.60;99.80;;;;;;5002042;28;20096;-69
2021/07/24 11:48:27;;;;;;;1.48;1.02;;;22.60;99.80;;;;;;5003255;28;20082;-65
2021/07/24 11:51:06;;;;;;;1.73;1.40;;;22.50;99.90;;;;;;5000042;28;20053;-67
2021/07/24 11:53:33;;;;;;;1.38;1.13;;;22.60;99.90;;;;;;4991003;28;20042;-66
2021/07/24 11:56:01;;;;;;;1.15;0.90;;;22.80;99.90;;;;;;5000805;28;20126;-68
2021/07/24 11:58:29;;;;;;;1.60;1.00;;;22.70;99.70;;;;;;5003255;28;20041;-67
2021/07/24 12:00:56;;;;;;;2.08;1.15;;;22.70;99.20;;;;;;5000221;28;20056;-68
2021/07/24 12:03:26;;;;;;;1.98;1.02;;;22.60;99.20;;;;;;5000344;28;20723;-66
2021/07/24 12:05:54;;;;;;;2.38;1.38;;;22.80;99.20;;;;;;5003650;28;20050;-65
2021/07/24 12:08:25;;;;;;;1.13;1.00;;;22.70;99.30;;;;;;4999405;28;20191;-65
2021/07/24 12:10:53;;;;;;;4.07;3.30;;;22.70;99.20;;;;;;5002129;28;20536;-68
2021/07/24 12:13:25;;;;;;;2.30;0.95;;;22.80;99.50;;;;;;5002310;28;20108;-67
2021/07/24 12:16:05;;;;;;;1.38;1.27;;;22.80;99.20;;;;;;5005804;28;20128;-67
2021/07/24 12:18:47;;;;;;;2.25;1.25;;;22.70;99.60;;;;;;5007518;28;20041;-65
2021/07/24 12:21:16;;;;;;;1.80;1.02;;;22.80;98.30;;;;;;5005172;28;20080;-69
2021/07/24 12:23:55;;;;;;;1.08;0.85;;;22.70;99.00;;;;;;4999233;28;20046;-68
2021/07/24 12:26:32;;;;;;;3.13;0.98;;;22.90;98.70;;;;;;5004480;28;20046;-67
2021/07/24 12:29:01;;;;;;;2.67;1.40;;;23.00;99.40;;;;;;4987914;28;20061;-65
2021/07/24 12:31:33;;;;;;;1.25;0.98;;;22.80;98.60;;;;;;5004916;28;20538;-65
2021/07/24 12:34:02;;;;;;;1.83;1.10;;;22.60;98.10;;;;;;5005474;28;20054;-68
2021/07/24 12:36:29;;;;;;;1.70;1.30;;;22.70;99.40;;;;;;5005325;28;20050;-71
2021/07/24 12:38:57;;;;;;;2.92;2.45;;;22.70;99.10;;;;;;5000009;28;20164;-66
2021/07/24 12:41:34;;;;;;;1.17;1.05;;;22.90;98.90;;;;;;5001880;28;20832;-66
2021/07/24 12:44:06;;;;;;;1.60;1.10;;;23.10;99.30;;;;;;5008986;28;20120;-66
2021/07/24 12:46:35;;;;;;;1.73;1.10;;;23.20;98.60;;;;;;5005966;28;20496;-66
2021/07/24 12:49:04;;;;;;;3.08;1.40;;;23.20;98.70;;;;;;5006619;28;20046;-68
2021/07/24 12:51:39;;;;;;;2.75;1.48;;;23.20;98.20;;;;;;4985808;28;20060;-70
2021/07/24 12:54:10;;;;;;;1.50;0.80;;;23.20;99.30;;;;;;5005418;28;20061;-68
2021/07/24 12:56:39;;;;;;;1.77;1.48;;;23.40;98.90;;;;;;5001672;28;20470;-65
2021/07/24 12:59:07;;;;;;;1.48;0.98;;;23.20;98.80;;;;;;5004882;28;20450;-68